Time;durP1;ratioP1;P1;durP2;ratioP2;P2;SDS_P1;SDS_P2;PMS_P1;PMS_P2;Temp;Humidity;BMP_temperature;BMP_pressure;BME280_temperature;BME280_humidity;BME280_pressure;Samples;Min_cycle;Max_cycle;Signal;HPM_P1;HPM_P2
2022/07/05 00:01:31;;;;;;;9.55;6.08;;;;;;;18.42;89.24;100059.97;1725847;83;21076;-70
2022/07/05 00:03:57;;;;;;;8.25;5.45;;;;;;;18.41;89.21;100064.94;1726004;81;21553;-72
2022/07/05 00:06:24;;;;;;;8.98;6.00;;;;;;;18.40;89.36;100057.88;1725773;83;21104;-72
2022/07/05 00:08:50;;;;;;;10.15;6.75;;;;;;;18.39;88.96;100061.04;1725910;83;21031;-71
2022/07/05 00:11:17;;;;;;;9.10;6.17;;;;;;;18.37;88.63;100064.78;1725815;83;21207;-71
2022/07/05 00:13:45;;;;;;;8.68;6.33;;;;;;;18.36;88.71;100064.42;1725877;83;21050;-71
2022/07/05 00:16:12;;;;;;;10.03;6.53;;;;;;;18.33;88.61;100065.46;1725889;83;22191;-71
2022/07/05 00:18:39;;;;;;;8.95;5.92;;;;;;;18.29;88.87;100065.78;1726088;82;21590;-71
2022/07/05 00:21:06;;;;;;;8.15;5.70;;;;;;;18.27;89.01;100065.91;1726028;82;21544;-72
2022/07/05 00:23:33;;;;;;;9.20;6.00;;;;;;;18.24;89.83;100066.11;1726036;82;21090;-71
2022/07/05 00:26:00;;;;;;;6.08;5.00;;;;;;;18.20;90.58;100071.30;1725959;83;21063;-71
2022/07/05 00:28:26;;;;;;;9.40;6.58;;;;;;;18.18;91.26;100070.06;1725843;82;21070;-71
2022/07/05 00:30:53;;;;;;;8.55;5.60;;;;;;;18.20;91.45;100065.48;1725819;82;21136;-71
2022/07/05 00:33:20;;;;;;;9.15;5.60;;;;;;;18.18;91.96;100069.22;1724510;82;21123;-71
2022/07/05 00:35:47;;;;;;;9.65;6.83;;;;;;;18.17;91.58;100079.00;1720630;83;21127;-71
2022/07/05 00:38:13;;;;;;;11.38;6.58;;;;;;;18.16;91.82;100077.31;1720794;83;21487;-70
2022/07/05 00:40:43;;;;;;;11.80;7.35;;;;;;;18.14;91.64;100076.56;1720618;83;21114;-72
2022/07/05 00:43:10;;;;;;;8.63;6.80;;;;;;;18.13;91.27;100084.20;1720598;83;21135;-68
2022/07/05 00:45:38;;;;;;;11.93;6.35;;;;;;;18.11;91.10;100088.78;1719412;83;21055;-70
2022/07/05 00:48:05;;;;;;;15.08;6.87;;;;;;;18.11;90.52;100082.11;1720807;83;20991;-70
2022/07/05 00:50:33;;;;;;;12.55;6.42;;;;;;;18.10;90.43;100084.39;1720439;83;21084;-71
2022/07/05 00:53:02;;;;;;;9.53;6.62;;;;;;;18.08;90.40;100086.30;1713499;83;21055;-71
2022/07/05 00:55:29;;;;;;;9.30;7.37;;;;;;;18.04;90.44;100083.50;1691767;84;21201;-68
2022/07/05 00:57:56;;;;;;;11.20;6.40;;;;;;;18.02;90.77;100088.08;1691513;83;21020;-70
2022/07/05 01:00:22;;;;;;;12.53;7.30;;;;;;;17.97;91.29;100084.88;1691820;84;21031;-69
2022/07/05 01:02:49;;;;;;;7.70;5.90;;;;;;;17.96;91.63;100081.83;1691871;84;21066;-68
2022/07/05 01:05:16;;;;;;;10.08;5.75;;;;;;;17.91;92.00;100085.30;1691940;83;21055;-69
2022/07/05 01:07:43;;;;;;;9.53;6.85;;;;;;;17.88;92.45;100084.19;1691780;84;21632;-70
2022/07/05 01:10:10;;;;;;;8.40;5.70;;;;;;;17.84;92.93;100084.86;1691534;84;21066;-69
2022/07/05 01:12:40;;;;;;;10.35;6.47;;;;;;;17.80;93.29;100085.49;1691562;84;22160;-73
2022/07/05 01:15:08;;;;;;;10.18;7.08;;;;;;;17.77;93.56;100088.86;1691222;84;21556;-70
2022/07/05 01:17:37;;;;;;;8.98;6.22;;;;;;;17.76;94.08;100089.80;1691773;84;21024;-71
2022/07/05 01:20:07;;;;;;;12.50;7.28;;;;;;;17.73;94.16;100089.53;1691699;84;21109;-72
2022/07/05 01:22:55;;;;;;;11.55;7.58;;;;;;;17.70;94.31;100084.42;1692180;84;21027;-69
2022/07/05 01:25:24;;;;;;;15.32;7.28;;;;;;;17.67;94.80;100081.09;1692193;84;21036;-70
2022/07/05 01:27:51;;;;;;;11.25;7.80;;;;;;;17.63;95.11;100080.47;1691727;83;21038;-70
2022/07/05 01:30:18;;;;;;;10.38;7.72;;;;;;;17.60;95.40;100079.36;1691990;84;21130;-69
2022/07/05 01:32:45;;;;;;;9.93;7.08;;;;;;;17.57;95.95;100079.54;1691725;84;21163;-69
2022/07/05 01:35:13;;;;;;;11.38;7.20;;;;;;;17.54;96.94;100082.42;1709424;82;21645;-70
2022/07/05 01:37:40;;;;;;;13.70;7.50;;;;;;;17.50;97.37;100084.91;1713020;83;21096;-71
2022/07/05 01:40:07;;;;;;;12.90;8.10;;;;;;;17.47;97.47;100084.63;1712785;83;21061;-69
2022/07/05 01:42:36;;;;;;;11.25;7.60;;;;;;;17.45;97.79;100077.70;1712972;82;21109;-70
2022/07/05 01:45:03;;;;;;;15.23;7.17;;;;;;;17.42;98.04;100076.11;1711649;83;21234;-70
2022/07/05 01:47:40;;;;;;;13.13;7.78;;;;;;;17.40;97.97;100077.53;1711641;82;21043;-70
2022/07/05 01:50:07;;;;;;;14.93;8.23;;;;;;;17.37;98.14;100075.56;1711501;83;21034;-70
2022/07/05 01:52:36;;;;;;;12.10;7.50;;;;;;;17.33;98.59;100082.88;1711706;83;21054;-69
2022/07/05 01:55:05;;;;;;;14.58;7.17;;;;;;;17.30;99.22;100084.87;1713051;83;21028;-70
2022/07/05 01:57:32;;;;;;;15.48;7.33;;;;;;;17.28;99.63;100084.16;1713384;83;21066;-71
2022/07/05 01:59:59;;;;;;;11.83;7.10;;;;;;;17.25;99.87;100083.85;1713033;83;21040;-72
2022/07/05 02:02:26;;;;;;;11.25;6.97;;;;;;;17.24;100.00;100086.15;1713143;83;21035;-72
2022/07/05 02:04:53;;;;;;;13.38;6.97;;;;;;;17.20;100.00;100085.48;1713150;82;21055;-70
2022/07/05 02:07:20;;;;;;;13.60;7.20;;;;;;;17.22;100.00;100082.73;1713176;83;21102;-71
2022/07/05 02:09:49;;;;;;;10.98;6.45;;;;;;;17.23;100.00;100080.92;1713084;82;21071;-72
2022/07/05 02:12:15;;;;;;;10.78;7.25;;;;;;;17.23;100.00;100079.13;1713000;82;21052;-69
2022/07/05 02:14:42;;;;;;;13.00;7.78;;;;;;;17.26;100.00;100084.24;1713126;83;21068;-72
2022/07/05 02:17:12;;;;;;;11.80;7.67;;;;;;;17.29;100.00;100083.19;1712960;82;21062;-73
2022/07/05 02:19:39;;;;;;;10.40;7.50;;;;;;;17.31;100.00;100084.79;1657043;85;21370;-72
2022/07/05 02:22:08;;;;;;;15.10;7.40;;;;;;;17.34;100.00;100083.25;1677377;85;21151;-73
2022/07/05 02:24:35;;;;;;;16.77;8.28;;;;;;;17.34;100.00;100083.25;1676993;85;21589;-72
2022/07/05 02:27:13;;;;;;;13.88;8.20;;;;;;;17.35;100.00;100081.46;1676175;85;21058;-72
2022/07/05 02:29:41;;;;;;;9.83;7.60;;;;;;;17.36;100.00;100085.33;1677041;85;21749;-72
2022/07/05 02:32:08;;;;;;;13.72;8.40;;;;;;;17.39;100.00;100084.27;1676961;85;21045;-73
2022/07/05 02:34:35;;;;;;;9.53;7.22;;;;;;;17.42;100.00;100073.93;1656307;85;21153;-71
2022/07/05 02:37:02;;;;;;;17.20;8.48;;;;;;;17.48;100.00;100085.48;1677154;85;20994;-70
2022/07/05 02:39:29;;;;;;;10.65;7.75;;;;;;;17.53;100.00;100084.69;1676995;85;21660;-71
2022/07/05 02:41:56;;;;;;;13.60;7.72;;;;;;;17.58;100.00;100083.93;1677348;85;21060;-72
2022/07/05 02:44:23;;;;;;;12.40;8.40;;;;;;;17.64;100.00;100083.49;1677233;85;20994;-71
2022/07/05 02:46:51;;;;;;;10.45;7.60;;;;;;;17.69;100.00;100079.19;1677169;85;21636;-70
2022/07/05 02:49:18;;;;;;;12.55;8.03;;;;;;;17.73;100.00;100084.20;1657292;85;21584;-69
2022/07/05 02:51:45;;;;;;;10.25;7.60;;;;;;;17.80;99.94;100083.31;1678299;85;21109;-71
2022/07/05 02:54:13;;;;;;;9.88;6.78;;;;;;;17.87;100.00;100075.80;1672411;85;21053;-71
2022/07/05 02:56:40;;;;;;;10.30;7.62;;;;;;;17.95;99.74;100081.47;1657694;85;21080;-71
2022/07/05 02:59:09;;;;;;;9.85;7.10;;;;;;;18.05;99.38;100090.52;1713104;83;21188;-71
2022/07/05 03:01:38;;;;;;;11.08;6.53;;;;;;;18.16;98.95;100079.98;1712703;83;21051;-72
2022/07/05 03:04:09;;;;;;;12.07;7.10;;;;;;;18.31;98.28;100083.86;1712978;82;21090;-70
2022/07/05 03:06:37;;;;;;;9.60;6.13;;;;;;;18.45;98.04;100085.10;1712280;82;21395;-70
2022/07/05 03:09:04;;;;;;;12.95;7.00;;;;;;;18.58;97.82;100085.91;1712960;82;21014;-71
2022/07/05 03:11:34;;;;;;;8.63;6.08;;;;;;;18.73;96.94;100092.47;1711806;83;21151;-69
2022/07/05 03:14:02;;;;;;;9.10;6.05;;;;;;;18.88;96.38;100083.86;1711611;82;21078;-69
2022/07/05 03:16:30;;;;;;;13.25;7.30;;;;;;;19.03;95.47;100091.61;1712847;83;21065;-70
2022/07/05 03:19:00;;;;;;;12.93;7.35;;;;;;;19.21;94.42;100099.22;1713093;83;21010;-71
2022/07/05 03:21:27;;;;;;;10.13;6.20;;;;;;;19.36;93.32;100095.42;1713322;83;21101;-71
2022/07/05 03:23:56;;;;;;;10.65;7.42;;;;;;;19.54;91.75;100098.55;1713036;83;22145;-70
2022/07/05 03:26:27;;;;;;;15.23;7.05;;;;;;;19.72;90.55;100095.02;1712336;83;21102;-71
2022/07/05 03:28:53;;;;;;;6.90;5.15;;;;;;;19.90;89.51;100094.95;1712084;82;21086;-70
2022/07/05 03:31:20;;;;;;;8.50;7.25;;;;;;;20.11;88.78;100100.46;1711526;83;21121;-70
2022/07/05 03:33:47;;;;;;;12.23;8.05;;;;;;;20.30;87.60;100093.19;1711740;83;21133;-70
2022/07/05 03:36:16;;;;;;;15.15;8.45;;;;;;;20.50;86.53;100097.47;1710767;82;21050;-70
2022/07/05 03:38:43;;;;;;;15.38;8.43;;;;;;;20.69;85.68;100096.40;1723099;83;21018;-70
2022/07/05 03:41:10;;;;;;;14.70;7.40;;;;;;;20.87;84.87;100094.08;1694730;83;21068;-70
2022/07/05 03:43:37;;;;;;;14.28;9.25;;;;;;;21.06;84.14;100096.10;1724088;82;21026;-71
2022/07/05 03:46:05;;;;;;;14.53;8.10;;;;;;;21.22;83.47;100093.52;1724961;82;21029;-69
2022/07/05 03:48:33;;;;;;;15.15;7.60;;;;;;;21.39;82.61;100087.61;1723612;83;21502;-71
2022/07/05 03:51:00;;;;;;;13.13;7.65;;;;;;;21.57;81.79;100090.12;1723703;83;22173;-70
2022/07/05 03:53:27;;;;;;;11.08;7.08;;;;;;;21.78;80.56;100090.64;1724779;83;21079;-69
2022/07/05 03:55:54;;;;;;;16.62;8.15;;;;;;;22.00;79.70;100088.34;1725894;83;21074;-69
2022/07/05 03:58:22;;;;;;;15.00;7.60;;;;;;;22.22;78.37;100090.03;1726099;82;21046;-70
2022/07/05 04:00:49;;;;;;;11.15;8.00;;;;;;;22.49;77.18;100099.36;1725895;83;21222;-70
2022/07/05 04:03:17;;;;;;;11.18;8.25;;;;;;;22.71;75.84;100092.47;1725914;81;21098;-70
2022/07/05 04:05:44;;;;;;;17.52;7.80;;;;;;;22.97;74.56;100091.98;1725899;83;21020;-71
2022/07/05 04:08:11;;;;;;;13.00;8.25;;;;;;;23.20;73.27;100088.09;1725943;83;21578;-70
2022/07/05 04:10:39;;;;;;;16.40;7.28;;;;;;;23.45;71.42;100093.92;1725621;82;21075;-72
2022/07/05 04:13:06;;;;;;;16.45;7.87;;;;;;;23.69;70.19;100095.34;1709643;83;21115;-68
2022/07/05 04:15:35;;;;;;;11.60;7.58;;;;;;;23.90;69.59;100092.02;1725767;83;21054;-70
2022/07/05 04:18:03;;;;;;;10.85;7.12;;;;;;;24.10;67.25;100092.84;1726064;82;21420;-70
2022/07/05 04:20:32;;;;;;;13.85;7.12;;;;;;;24.32;65.97;100093.01;1726172;83;21107;-71
2022/07/05 04:22:58;;;;;;;11.83;7.37;;;;;;;24.53;65.13;100096.86;1726074;82;21059;-71
2022/07/05 04:25:25;;;;;;;11.68;7.00;;;;;;;24.72;63.89;100095.92;1725806;83;21882;-70
2022/07/05 04:27:54;;;;;;;14.75;7.58;;;;;;;24.90;62.92;100096.82;1722958;82;21059;-70
2022/07/05 04:30:25;;;;;;;9.80;6.22;;;;;;;25.05;62.67;100088.22;1726041;82;21581;-70
2022/07/05 04:32:52;;;;;;;12.60;7.65;;;;;;;25.27;60.47;100089.17;1726092;83;21099;-70
2022/07/05 04:35:19;;;;;;;12.18;6.75;;;;;;;25.47;59.81;100093.09;1726030;83;21043;-71
2022/07/05 04:37:48;;;;;;;8.20;6.25;;;;;;;25.67;59.10;100092.41;1721321;82;21602;-70
2022/07/05 04:40:14;;;;;;;9.73;6.90;;;;;;;25.94;57.72;100088.79;1712896;82;21122;-70
2022/07/05 04:42:42;;;;;;;15.03;6.72;;;;;;;26.18;56.29;100089.96;1712855;83;21052;-72
2022/07/05 04:45:10;;;;;;;9.20;5.62;;;;;;;26.34;55.65;100087.36;1713221;83;21548;-71
2022/07/05 04:47:37;;;;;;;14.03;5.90;;;;;;;26.53;55.23;100091.20;1713177;82;21566;-71
2022/07/05 04:50:05;;;;;;;11.18;6.30;;;;;;;26.73;54.12;100078.81;1713056;83;21152;-70
2022/07/05 04:52:33;;;;;;;10.55;6.28;;;;;;;26.84;53.25;100079.87;1712857;83;21675;-72
2022/07/05 04:54:59;;;;;;;14.80;7.17;;;;;;;26.99;53.42;100070.14;1713036;83;21044;-71
2022/07/05 04:57:26;;;;;;;14.73;7.00;;;;;;;27.16;52.73;100073.71;1713233;83;21118;-73
2022/07/05 04:59:52;;;;;;;9.93;6.55;;;;;;;27.30;52.60;100080.36;1713004;83;21722;-71
2022/07/05 05:02:19;;;;;;;16.57;6.25;;;;;;;27.53;51.84;100087.84;1713128;82;21175;-71
2022/07/05 05:04:45;;;;;;;12.05;6.30;;;;;;;27.73;50.63;100081.08;1712914;82;21099;-71
2022/07/05 05:07:12;;;;;;;9.40;5.85;;;;;;;28.00;49.92;100081.79;1712913;83;21008;-71
2022/07/05 05:09:40;;;;;;;7.33;5.75;;;;;;;28.27;49.29;100076.98;1712854;83;21039;-70
2022/07/05 05:12:08;;;;;;;12.20;5.90;;;;;;;28.52;48.85;100071.86;1713057;83;21043;-72
2022/07/05 05:14:34;;;;;;;11.83;6.22;;;;;;;28.83;48.12;100075.14;1713000;83;21898;-70
2022/07/05 05:17:02;;;;;;;11.78;5.75;;;;;;;29.14;47.48;100068.90;1713349;83;21102;-71
2022/07/05 05:19:30;;;;;;;9.48;5.72;;;;;;;29.37;46.49;100066.20;1713050;82;21694;-70
2022/07/05 05:21:56;;;;;;;13.13;6.60;;;;;;;29.48;46.65;100067.14;1712983;83;21032;-70
2022/07/05 05:24:23;;;;;;;9.80;5.62;;;;;;;29.66;46.86;100070.38;1712995;83;21132;-72
2022/07/05 05:26:51;;;;;;;8.28;6.10;;;;;;;29.90;46.56;100076.65;1712769;82;21132;-70
2022/07/05 05:29:20;;;;;;;15.58;6.40;;;;;;;30.27;45.46;100077.67;1713282;82;21072;-71
2022/07/05 05:31:47;;;;;;;12.95;6.25;;;;;;;30.53;44.42;100082.66;1713038;83;21087;-72
2022/07/05 05:34:14;;;;;;;11.20;6.00;;;;;;;30.68;44.31;100075.32;1712968;82;21123;-72
2022/07/05 05:36:40;;;;;;;11.25;6.12;;;;;;;30.92;43.55;100081.00;1712929;83;21118;-71
2022/07/05 05:39:07;;;;;;;18.45;6.60;;;;;;;31.14;43.03;100085.95;1713013;82;21468;-71
2022/07/05 05:41:35;;;;;;;11.22;5.78;;;;;;;31.52;41.61;100084.41;1712808;83;21068;-72
2022/07/05 05:44:04;;;;;;;9.30;6.10;;;;;;;31.52;41.61;100084.41;1713122;82;22178;-71
2022/07/05 05:46:30;;;;;;;14.87;6.67;;;;;;;31.67;41.05;100083.48;1712984;82;21020;-71
2022/07/05 05:48:58;;;;;;;12.90;5.87;;;;;;;31.72;40.39;100085.09;1713485;83;21051;-70
2022/07/05 05:51:25;;;;;;;17.02;5.85;;;;;;;31.66;40.07;100083.18;1713101;82;21610;-71
2022/07/05 05:53:51;;;;;;;9.18;5.70;;;;;;;31.67;40.66;100079.41;1713158;82;21629;-72
2022/07/05 05:56:18;;;;;;;9.15;5.90;;;;;;;31.84;39.94;100079.46;1713161;82;21056;-71
2022/07/05 05:58:45;;;;;;;10.50;5.78;;;;;;;31.95;40.18;100080.26;1713333;83;21132;-73
2022/07/05 06:01:11;;;;;;;20.10;6.85;;;;;;;32.04;39.88;100085.61;1713171;82;21125;-72
2022/07/05 06:03:38;;;;;;;17.02;6.37;;;;;;;32.23;39.75;100084.89;1713076;83;21051;-72
2022/07/05 06:06:06;;;;;;;20.37;6.47;;;;;;;32.36;38.93;100082.26;1712944;82;21566;-72
2022/07/05 06:08:34;;;;;;;16.48;6.62;;;;;;;32.52;39.22;100080.30;1713102;83;21053;-71
2022/07/05 06:11:04;;;;;;;13.20;5.83;;;;;;;32.75;38.62;100079.98;1713019;83;21637;-71
2022/07/05 06:13:31;;;;;;;15.70;6.00;;;;;;;33.02;37.72;100072.75;1713079;82;21065;-72
2022/07/05 06:15:58;;;;;;;15.93;5.83;;;;;;;33.26;37.41;100078.19;1713204;83;21152;-72
2022/07/05 06:18:25;;;;;;;9.50;5.37;;;;;;;33.31;37.49;100076.20;1713147;82;21578;-72
2022/07/05 06:20:52;;;;;;;16.48;5.80;;;;;;;33.27;37.58;100078.53;1713214;82;21110;-71
2022/07/05 06:23:18;;;;;;;12.03;5.90;;;;;;;33.26;37.63;100073.27;1713512;83;21600;-73
2022/07/05 06:25:45;;;;;;;9.70;5.62;;;;;;;33.17;37.78;100075.33;1703243;83;21093;-73
2022/07/05 06:28:12;;;;;;;15.32;5.72;;;;;;;33.29;37.49;100072.34;1713285;83;21497;-71
2022/07/05 06:30:39;;;;;;;14.18;5.03;;;;;;;33.31;37.54;100062.56;1713001;83;21049;-72
2022/07/05 06:33:06;;;;;;;11.65;5.15;;;;;;;33.16;37.42;100074.50;1713359;83;21047;-72
2022/07/05 06:35:32;;;;;;;8.85;5.50;;;;;;;33.15;37.81;100075.56;1713082;83;21077;-72
2022/07/05 06:38:03;;;;;;;14.18;5.70;;;;;;;33.22;38.01;100074.19;1712895;82;21177;-73
2022/07/05 06:40:39;;;;;;;13.13;5.70;;;;;;;33.44;37.35;100070.78;1713000;83;21431;-72
2022/07/05 06:43:07;;;;;;;15.10;5.40;;;;;;;33.72;36.66;100065.16;1713014;83;21090;-72
2022/07/05 06:45:42;;;;;;;11.08;5.25;;;;;;;33.87;36.35;100073.66;1712388;83;21030;-71
2022/07/05 06:48:11;;;;;;;19.40;5.12;;;;;;;33.85;36.20;100072.52;1713073;82;21077;-72
2022/07/05 06:50:41;;;;;;;7.70;4.45;;;;;;;34.04;36.04;100066.19;1713379;82;21077;-72
2022/07/05 06:53:09;;;;;;;8.80;4.42;;;;;;;34.18;34.97;100073.04;1702686;82;21896;-72
2022/07/05 06:55:36;;;;;;;12.58;4.83;;;;;;;34.22;34.94;100078.40;1678603;85;21526;-72
2022/07/05 06:58:05;;;;;;;12.05;4.83;;;;;;;34.35;34.41;100072.91;1645856;87;21061;-72
2022/07/05 07:00:32;;;;;;;9.97;4.50;;;;;;;34.35;34.70;100067.45;1646226;87;21026;-72
2022/07/05 07:03:01;;;;;;;8.80;4.40;;;;;;;34.59;34.26;100069.98;1645879;87;21578;-74
2022/07/05 07:05:27;;;;;;;11.88;4.75;;;;;;;34.75;33.81;100063.23;1678521;85;21128;-74
2022/07/05 07:10:44;;;;;;;9.65;4.70;;;;;;;34.81;33.66;100067.84;1645815;87;21078;-72
2022/07/05 07:13:12;;;;;;;11.08;4.70;;;;;;;35.12;32.81;100074.98;1645632;87;21078;-73
2022/07/05 07:15:39;;;;;;;20.32;4.60;;;;;;;35.26;32.94;100070.56;1678949;85;21081;-73
2022/07/05 07:18:06;;;;;;;8.25;4.65;;;;;;;35.45;31.60;100070.66;1648966;86;21176;-72
2022/07/05 07:20:34;;;;;;;11.63;4.95;;;;;;;35.68;31.76;100068.22;1677017;85;21042;-72
2022/07/05 07:23:04;;;;;;;7.00;3.85;;;;;;;35.76;31.44;100073.94;1645836;87;21070;-71
2022/07/05 07:25:32;;;;;;;7.05;3.33;;;;;;;35.67;31.04;100069.26;1678619;85;22159;-71
2022/07/05 07:27:59;;;;;;;8.83;3.60;;;;;;;35.61;30.88;100075.61;1645838;87;21081;-72
2022/07/05 07:30:27;;;;;;;9.65;3.62;;;;;;;35.65;30.88;100076.86;1645901;87;21114;-72
2022/07/05 07:32:54;;;;;;;8.45;3.75;;;;;;;35.54;31.21;100072.59;1678533;85;21665;-72
2022/07/05 07:35:21;;;;;;;7.40;3.98;;;;;;;35.44;31.42;100067.63;1678510;85;21085;-72
2022/07/05 07:37:48;;;;;;;7.70;3.22;;;;;;;35.56;31.26;100065.84;1678616;85;21089;-71
2022/07/05 07:40:15;;;;;;;6.83;3.72;;;;;;;35.64;30.66;100068.34;1652713;86;21088;-72
2022/07/05 07:42:42;;;;;;;5.65;3.55;;;;;;;35.64;31.34;100068.34;1686472;85;21076;-72
2022/07/05 07:45:10;;;;;;;7.25;3.52;;;;;;;35.78;31.24;100075.09;1653092;86;21097;-71
2022/07/05 07:47:38;;;;;;;5.47;3.20;;;;;;;36.10;29.98;100065.75;1686529;85;21060;-73
2022/07/05 07:50:06;;;;;;;5.50;3.20;;;;;;;36.03;28.01;100066.32;1653070;86;21522;-72
2022/07/05 07:52:34;;;;;;;9.83;3.25;;;;;;;35.79;28.68;100063.89;1655369;85;21542;-73
2022/07/05 07:55:01;;;;;;;6.83;3.30;;;;;;;35.87;29.47;100060.05;1720601;83;21788;-73
2022/07/05 07:57:28;;;;;;;5.90;3.08;;;;;;;36.02;29.88;100061.89;1720409;83;21021;-72
2022/07/05 07:59:55;;;;;;;10.13;3.15;;;;;;;36.00;28.11;100061.27;1720803;83;21089;-73
2022/07/05 08:02:22;;;;;;;7.62;3.65;;;;;;;35.93;28.07;100055.02;1720559;83;21557;-73
2022/07/05 08:04:50;;;;;;;6.72;3.35;;;;;;;36.01;28.07;100060.22;1720715;83;21085;-72
2022/07/05 08:07:18;;;;;;;7.97;3.40;;;;;;;36.13;27.74;100060.34;1720785;83;21131;-72
2022/07/05 08:09:46;;;;;;;5.10;3.12;;;;;;;35.95;27.90;100054.27;1720975;83;21617;-72
2022/07/05 08:12:13;;;;;;;6.83;3.40;;;;;;;36.00;27.05;100053.05;1720714;83;21046;-70
2022/07/05 08:14:40;;;;;;;9.40;3.17;;;;;;;36.23;28.03;100051.59;1721008;83;21106;-71
2022/07/05 08:17:08;;;;;;;4.62;2.92;;;;;;;36.33;27.24;100047.81;1720612;83;21061;-71
2022/07/05 08:22:20;;;;;;;12.53;3.30;;;;;;;36.41;27.02;100047.48;1720685;83;21557;-72
2022/07/05 08:24:47;;;;;;;12.18;3.50;;;;;;;36.75;26.24;100042.48;1720701;83;21101;-72
2022/07/05 08:27:14;;;;;;;6.67;3.40;;;;;;;36.88;25.94;100046.42;1720519;83;21061;-72
2022/07/05 08:29:43;;;;;;;7.60;3.90;;;;;;;36.64;24.02;100041.34;1720705;83;21588;-73
2022/07/05 08:32:09;;;;;;;4.62;3.22;;;;;;;36.30;25.03;100030.42;1720818;83;21086;-71
2022/07/05 08:34:36;;;;;;;9.18;3.45;;;;;;;36.22;24.90;100032.11;1720523;83;21052;-73
2022/07/05 08:37:03;;;;;;;5.80;3.33;;;;;;;36.08;25.76;100030.84;1720865;83;21026;-73
2022/07/05 08:39:31;;;;;;;8.90;3.50;;;;;;;36.15;25.92;100034.09;1716735;82;21049;-72
2022/07/05 08:41:59;;;;;;;13.25;3.55;;;;;;;36.00;26.53;100033.87;1713010;82;21042;-72
2022/07/05 08:44:30;;;;;;;5.62;3.60;;;;;;;35.84;26.59;100030.34;1713282;83;21675;-74
2022/07/05 08:46:58;;;;;;;6.70;3.22;;;;;;;35.93;26.24;100039.95;1713209;83;21267;-72
2022/07/05 08:49:28;;;;;;;4.42;3.27;;;;;;;35.90;25.24;100036.30;1713060;83;21069;-72
2022/07/05 08:51:55;;;;;;;6.87;3.42;;;;;;;35.88;25.40;100030.20;1713035;83;21058;-71
2022/07/05 08:54:24;;;;;;;4.35;3.27;;;;;;;35.92;25.58;100028.70;1685104;82;21076;-71
2022/07/05 08:56:51;;;;;;;5.65;3.17;;;;;;;36.06;25.18;100024.75;1678441;85;21791;-71
2022/07/05 08:59:20;;;;;;;4.83;3.20;;;;;;;36.17;25.46;100026.45;1678960;85;21129;-72
2022/07/05 09:01:47;;;;;;;7.35;3.25;;;;;;;36.21;25.77;100038.11;1678486;85;21140;-71
2022/07/05 09:04:14;;;;;;;20.25;3.85;;;;;;;36.32;26.11;100037.35;1678645;85;21073;-71
2022/07/05 09:06:41;;;;;;;8.75;2.95;;;;;;;36.29;24.26;100039.73;1678674;85;21117;-71
2022/07/05 09:09:08;;;;;;;5.60;2.72;;;;;;;36.08;25.05;100045.92;1645925;87;21101;-72
2022/07/05 09:11:40;;;;;;;6.62;3.10;;;;;;;35.76;25.46;100040.23;1645694;87;21049;-74
2022/07/05 09:14:21;;;;;;;7.50;3.17;;;;;;;35.55;26.13;100039.52;1646271;87;21640;-72
2022/07/05 09:16:48;;;;;;;6.12;2.98;;;;;;;35.59;26.16;100035.28;1645807;87;21121;-71
2022/07/05 09:19:15;;;;;;;3.50;2.92;;;;;;;35.94;25.41;100040.27;1646005;87;21113;-72
2022/07/05 09:21:41;;;;;;;5.53;3.05;;;;;;;36.05;24.55;100039.53;1678856;85;21156;-74
2022/07/05 09:24:11;;;;;;;5.33;2.90;;;;;;;36.30;24.60;100037.28;1645988;87;21069;-74
2022/07/05 09:26:44;;;;;;;4.45;2.77;;;;;;;36.62;24.47;100038.52;1678711;85;21598;-73
2022/07/05 09:29:16;;;;;;;4.10;2.80;;;;;;;36.91;24.12;100032.23;1645990;87;21014;-73
2022/07/05 09:31:46;;;;;;;3.90;2.87;;;;;;;37.22;23.32;100033.07;1645814;87;21085;-71
2022/07/05 09:34:15;;;;;;;4.45;2.77;;;;;;;37.56;22.42;100029.30;1645764;87;21230;-73
2022/07/05 09:36:55;;;;;;;4.28;2.80;;;;;;;37.68;23.26;100033.44;1678325;85;22069;-72
2022/07/05 09:39:36;;;;;;;6.03;2.92;;;;;;;37.96;22.24;100031.34;1678490;84;21081;-72
2022/07/05 09:42:22;;;;;;;6.35;3.45;;;;;;;37.88;21.78;100037.22;1645747;87;21061;-71
2022/07/05 09:44:52;;;;;;;5.65;2.98;;;;;;;37.30;22.69;100040.98;1678778;85;21084;-74
2022/07/05 09:47:21;;;;;;;;;;;;;;;36.99;23.01;100039.83;1681476;85;21180;-71
2022/07/05 09:51:20;;;;;;;6.35;3.30;;;;;;;37.03;22.29;100039.67;1814397;79;22814;-72
2022/07/05 09:53:53;;;;;;;7.53;3.25;;;;;;;37.13;22.35;100045.45;1787704;80;22171;-72
2022/07/05 09:56:20;;;;;;;4.25;2.90;;;;;;;37.15;22.29;100043.31;1787432;80;21177;-74
2022/07/05 09:58:47;;;;;;;4.58;2.80;;;;;;;37.46;21.92;100027.66;1757386;80;21023;-72
2022/07/05 10:01:27;;;;;;;4.30;2.75;;;;;;;37.77;21.94;100031.46;1787349;80;20994;-73
2022/07/05 10:03:58;;;;;;;6.85;2.85;;;;;;;37.85;21.70;100028.05;1774465;80;21701;-72
2022/07/05 10:06:26;;;;;;;4.05;2.75;;;;;;;38.11;21.98;100022.11;1756353;81;21030;-72
2022/07/05 10:08:53;;;;;;;6.60;3.17;;;;;;;38.37;21.83;100025.41;1756629;81;21793;-71
2022/07/05 10:11:29;;;;;;;4.03;2.85;;;;;;;38.57;22.63;100021.75;1756299;81;21080;-73
2022/07/05 10:13:56;;;;;;;3.83;3.00;;;;;;;38.77;22.49;100020.50;1756580;81;20995;-72
2022/07/05 10:16:23;;;;;;;6.17;3.10;;;;;;;38.68;22.74;100022.80;1726883;81;21113;-72
2022/07/05 10:18:53;;;;;;;5.20;3.30;;;;;;;38.63;22.16;100017.72;1756494;81;21099;-72
2022/07/05 10:21:20;;;;;;;3.80;2.87;;;;;;;38.46;21.97;100025.33;1756480;81;21406;-73
2022/07/05 10:23:56;;;;;;;6.83;3.10;;;;;;;38.15;22.26;100015.06;1756563;81;21526;-73
2022/07/05 10:26:24;;;;;;;4.62;3.00;;;;;;;38.06;22.01;100012.92;1755804;81;21602;-74
2022/07/05 10:28:52;;;;;;;4.75;2.70;;;;;;;38.30;22.41;100015.09;1756597;81;21034;-72
2022/07/05 10:31:19;;;;;;;4.33;2.90;;;;;;;38.42;21.37;100011.76;1756378;81;21553;-73
2022/07/05 10:33:45;;;;;;;3.65;3.02;;;;;;;38.61;21.35;100016.06;1756831;81;21096;-73
2022/07/05 10:36:13;;;;;;;3.75;2.42;;;;;;;38.71;21.48;100010.46;1756582;81;20988;-73
2022/07/05 10:38:43;;;;;;;4.05;2.83;;;;;;;38.80;21.14;100003.48;1756744;81;21062;-73
2022/07/05 10:41:15;;;;;;;5.72;2.80;;;;;;;38.91;21.11;100002.59;1756508;81;21105;-73
2022/07/05 10:43:43;;;;;;;13.70;3.00;;;;;;;38.89;21.52;99999.25;1756827;81;21086;-73
2022/07/05 10:46:11;;;;;;;4.67;3.05;;;;;;;38.57;21.12;100010.73;1756462;81;21585;-73
2022/07/05 10:48:38;;;;;;;4.05;2.52;;;;;;;37.69;22.26;100002.98;1726320;81;21023;-72
2022/07/05 10:51:15;;;;;;;6.42;2.90;;;;;;;36.99;22.96;100005.52;1752274;81;21595;-72
2022/07/05 10:54:00;;;;;;;5.30;2.92;;;;;;;36.51;23.96;100008.05;1751278;81;21045;-73
2022/07/05 10:56:27;;;;;;;6.50;3.08;;;;;;;36.21;24.00;100004.38;1751408;81;21100;-72
2022/07/05 10:59:09;;;;;;;6.53;2.83;;;;;;;36.42;24.24;100005.31;1751269;81;21129;-72
2022/07/05 11:01:38;;;;;;;7.95;3.30;;;;;;;36.70;24.07;100003.93;1750718;81;21568;-72
2022/07/05 11:04:13;;;;;;;6.03;2.75;;;;;;;36.75;24.00;100002.70;1750642;81;21104;-71
2022/07/05 11:06:43;;;;;;;4.85;3.05;;;;;;;36.65;24.98;100002.39;1742913;82;21029;-73
2022/07/05 11:09:16;;;;;;;5.92;3.42;;;;;;;36.53;25.67;99993.53;1750522;82;21044;-74
2022/07/05 11:12:06;;;;;;;15.25;3.85;;;;;;;36.58;26.50;99992.02;1750556;82;21092;-72
2022/07/05 11:14:35;;;;;;;7.12;3.30;;;;;;;36.33;26.13;100001.20;1750732;82;21037;-73
2022/07/05 11:17:29;;;;;;;3.95;2.90;;;;;;;35.70;25.78;99997.59;1750851;82;21131;-73
2022/07/05 11:20:23;;;;;;;6.00;2.90;;;;;;;35.39;26.33;99992.99;1750799;82;21021;-72
2022/07/05 11:23:11;;;;;;;5.47;2.98;;;;;;;35.39;26.41;99996.27;1750867;82;21053;-71
2022/07/05 11:25:47;;;;;;;4.78;2.95;;;;;;;35.03;26.72;99984.06;1750611;82;21841;-72
2022/07/05 11:28:23;;;;;;;6.03;2.85;;;;;;;34.51;27.57;99984.12;1750907;82;21050;-72
2022/07/05 11:30:52;;;;;;;4.85;3.20;;;;;;;34.25;27.95;99982.31;1750734;82;21319;-72
2022/07/05 11:33:34;;;;;;;;;;;;;;;34.32;28.66;99985.85;1753430;82;21073;-72
2022/07/05 11:36:01;;;;;;;5.45;2.83;;;;;;;34.33;28.36;99986.19;1750726;81;20450;-72